sensor_id;sensor_type;location;lat;lon;timestamp;pressure;altitude;pressure_sealevel;temperature;humidity
61769;BME280;47669;48.712;9.016;2023-01-28T00:01:15;97071.38;;;-2.01;nan
61769;BME280;47669;48.712;9.016;2023-01-28T00:03:41;97066.00;;;-1.98;nan
61769;BME280;47669;48.712;9.016;2023-01-28T00:06:09;97069.13;;;-1.73;nan
61769;BME280;47669;48.712;9.016;2023-01-28T00:08:35;97069.31;;;-1.86;nan
61769;BME280;47669;48.712;9.016;2023-01-28T00:11:02;97062.81;;;-1.80;nan
61769;BME280;47669;48.712;9.016;2023-01-28T00:13:29;97067.56;;;-2.06;nan
61769;BME280;47669;48.712;9.016;2023-01-28T00:15:55;97062.19;;;-1.72;nan
61769;BME280;47669;48.712;9.016;2023-01-28T00:18:21;97060.66;;;-2.06;nan
61769;BME280;47669;48.712;9.016;2023-01-28T00:21:16;97058.31;;;-2.09;nan
61769;BME280;47669;48.712;9.016;2023-01-28T00:23:44;97064.16;;;-2.07;nan
61769;BME280;47669;48.712;9.016;2023-01-28T00:26:13;97067.69;;;-2.08;nan
61769;BME280;47669;48.712;9.016;2023-01-28T00:28:40;97057.94;;;-2.04;nan
61769;BME280;47669;48.712;9.016;2023-01-28T00:31:06;97058.81;;;-1.94;nan
61769;BME280;47669;48.712;9.016;2023-01-28T00:33:32;97062.28;;;-2.05;nan
61769;BME280;47669;48.712;9.016;2023-01-28T00:35:58;97059.84;;;-2.06;nan
61769;BME280;47669;48.712;9.016;2023-01-28T00:38:25;97062.31;;;-1.95;nan
61769;BME280;47669;48.712;9.016;2023-01-28T00:40:50;97065.22;;;-1.88;nan
61769;BME280;47669;48.712;9.016;2023-01-28T00:43:15;97057.56;;;-1.69;nan
61769;BME280;47669;48.712;9.016;2023-01-28T00:45:41;97048.69;;;-1.76;nan
61769;BME280;47669;48.712;9.016;2023-01-28T00:48:06;97053.19;;;-1.99;nan
61769;BME280;47669;48.712;9.016;2023-01-28T00:50:32;97053.31;;;-2.01;nan
61769;BME280;47669;48.712;9.016;2023-01-28T00:52:57;97050.00;;;-2.12;nan
61769;BME280;47669;48.712;9.016;2023-01-28T00:55:23;97056.69;;;-2.10;nan
61769;BME280;47669;48.712;9.016;2023-01-28T00:57:48;97048.03;;;-1.99;nan
61769;BME280;47669;48.712;9.016;2023-01-28T01:00:13;97054.41;;;-2.03;nan
61769;BME280;47669;48.712;9.016;2023-01-28T01:02:39;97053.66;;;-1.94;nan
61769;BME280;47669;48.712;9.016;2023-01-28T01:05:04;97062.06;;;-1.92;nan
61769;BME280;47669;48.712;9.016;2023-01-28T01:07:30;97057.22;;;-1.85;nan
61769;BME280;47669;48.712;9.016;2023-01-28T01:10:10;97057.44;;;-1.98;nan
61769;BME280;47669;48.712;9.016;2023-01-28T01:12:37;97059.06;;;-1.97;nan
61769;BME280;47669;48.712;9.016;2023-01-28T01:15:04;97051.63;;;-1.90;nan
61769;BME280;47669;48.712;9.016;2023-01-28T01:17:35;97052.97;;;-1.96;nan
61769;BME280;47669;48.712;9.016;2023-01-28T01:20:03;97048.94;;;-2.10;nan
61769;BME280;47669;48.712;9.016;2023-01-28T01:22:28;97052.50;;;-2.01;nan
61769;BME280;47669;48.712;9.016;2023-01-28T01:24:56;97059.44;;;-2.02;nan
61769;BME280;47669;48.712;9.016;2023-01-28T01:27:21;97063.69;;;-1.91;nan
61769;BME280;47669;48.712;9.016;2023-01-28T01:29:47;97062.59;;;-1.98;nan
61769;BME280;47669;48.712;9.016;2023-01-28T01:32:12;97063.53;;;-1.99;nan
61769;BME280;47669;48.712;9.016;2023-01-28T01:34:37;97060.66;;;-2.06;nan
61769;BME280;47669;48.712;9.016;2023-01-28T01:37:02;97069.38;;;-1.97;nan
61769;BME280;47669;48.712;9.016;2023-01-28T01:39:30;97075.22;;;-1.95;nan
61769;BME280;47669;48.712;9.016;2023-01-28T01:41:55;97073.16;;;-2.01;nan
61769;BME280;47669;48.712;9.016;2023-01-28T01:47:43;97075.38;;;-1.96;nan
61769;BME280;47669;48.712;9.016;2023-01-28T01:50:28;97071.16;;;-1.98;nan
61769;BME280;47669;48.712;9.016;2023-01-28T01:53:00;97078.25;;;-1.90;nan
61769;BME280;47669;48.712;9.016;2023-01-28T01:55:29;97076.94;;;-1.84;nan
61769;BME280;47669;48.712;9.016;2023-01-28T01:57:57;97075.78;;;-1.91;nan
61769;BME280;47669;48.712;9.016;2023-01-28T02:00:26;97081.28;;;-1.85;nan
61769;BME280;47669;48.712;9.016;2023-01-28T02:02:52;97083.38;;;-2.00;nan
61769;BME280;47669;48.712;9.016;2023-01-28T02:05:20;97082.50;;;-2.10;nan
61769;BME280;47669;48.712;9.016;2023-01-28T02:07:47;97072.75;;;-2.06;nan
61769;BME280;47669;48.712;9.016;2023-01-28T02:10:14;97078.66;;;-1.94;nan
61769;BME280;47669;48.712;9.016;2023-01-28T02:12:42;97081.53;;;-1.88;nan
61769;BME280;47669;48.712;9.016;2023-01-28T02:15:12;97078.72;;;-2.06;nan
61769;BME280;47669;48.712;9.016;2023-01-28T02:17:39;97080.34;;;-2.05;nan
61769;BME280;47669;48.712;9.016;2023-01-28T02:20:08;97074.69;;;-2.20;nan
61769;BME280;47669;48.712;9.016;2023-01-28T02:23:01;97080.28;;;-1.93;nan
61769;BME280;47669;48.712;9.016;2023-01-28T02:28:43;97087.72;;;-2.00;nan
61769;BME280;47669;48.712;9.016;2023-01-28T02:31:26;97081.53;;;-2.09;nan
61769;BME280;47669;48.712;9.016;2023-01-28T02:34:01;97087.19;;;-1.94;nan
61769;BME280;47669;48.712;9.016;2023-01-28T02:36:35;97085.59;;;-1.85;nan
61769;BME280;47669;48.712;9.016;2023-01-28T02:39:15;97076.59;;;-1.91;nan
61769;BME280;47669;48.712;9.016;2023-01-28T02:41:49;97078.50;;;-1.93;nan
61769;BME280;47669;48.712;9.016;2023-01-28T02:44:17;97080.97;;;-1.91;nan
61769;BME280;47669;48.712;9.016;2023-01-28T02:46:43;97084.44;;;-2.02;nan
61769;BME280;47669;48.712;9.016;2023-01-28T02:49:50;97087.84;;;-2.02;nan
61769;BME280;47669;48.712;9.016;2023-01-28T02:52:19;97088.66;;;-2.01;nan
61769;BME280;47669;48.712;9.016;2023-01-28T02:55:14;97089.50;;;-1.91;nan
61769;BME280;47669;48.712;9.016;2023-01-28T03:03:54;97093.97;;;-1.93;nan
61769;BME280;47669;48.712;9.016;2023-01-28T03:06:26;97095.88;;;-1.95;nan
61769;BME280;47669;48.712;9.016;2023-01-28T03:08:56;97102.34;;;-2.01;nan
61769;BME280;47669;48.712;9.016;2023-01-28T03:11:45;97109.13;;;-1.88;nan
61769;BME280;47669;48.712;9.016;2023-01-28T03:14:33;97098.91;;;-1.90;nan
61769;BME280;47669;48.712;9.016;2023-01-28T03:17:24;97105.50;;;-1.97;nan
61769;BME280;47669;48.712;9.016;2023-01-28T03:20:11;97105.63;;;-1.99;nan
61769;BME280;47669;48.712;9.016;2023-01-28T03:22:57;97106.88;;;-1.93;nan
61769;BME280;47669;48.712;9.016;2023-01-28T03:25:46;97115.25;;;-2.01;nan
61769;BME280;47669;48.712;9.016;2023-01-28T03:28:32;97111.13;;;-2.13;nan
61769;BME280;47669;48.712;9.016;2023-01-28T03:31:19;97104.63;;;-2.07;nan
61769;BME280;47669;48.712;9.016;2023-01-28T03:34:07;97108.47;;;-2.02;nan
61769;BME280;47669;48.712;9.016;2023-01-28T03:36:52;97112.00;;;-2.03;nan
61769;BME280;47669;48.712;9.016;2023-01-28T03:39:24;97112.38;;;-2.07;nan
61769;BME280;47669;48.712;9.016;2023-01-28T03:42:04;97114.38;;;-2.11;nan
61769;BME280;47669;48.712;9.016;2023-01-28T03:44:31;97114.66;;;-2.14;nan
61769;BME280;47669;48.712;9.016;2023-01-28T03:47:15;97125.34;;;-1.98;nan
61769;BME280;47669;48.712;9.016;2023-01-28T03:49:48;97129.25;;;-2.03;nan
61769;BME280;47669;48.712;9.016;2023-01-28T03:52:16;97132.53;;;-2.01;nan
61769;BME280;47669;48.712;9.016;2023-01-28T03:54:42;97134.41;;;-2.03;nan
61769;BME280;47669;48.712;9.016;2023-01-28T03:57:08;97132.91;;;-2.06;nan
61769;BME280;47669;48.712;9.016;2023-01-28T03:59:34;97128.38;;;-1.92;nan
61769;BME280;47669;48.712;9.016;2023-01-28T04:01:59;97127.13;;;-1.98;nan
61769;BME280;47669;48.712;9.016;2023-01-28T04:04:28;97126.03;;;-1.95;nan
61769;BME280;47669;48.712;9.016;2023-01-28T04:06:54;97125.59;;;-2.01;nan
61769;BME280;47669;48.712;9.016;2023-01-28T04:09:20;97126.28;;;-1.99;nan
61769;BME280;47669;48.712;9.016;2023-01-28T04:11:46;97124.53;;;-1.98;nan
61769;BME280;47669;48.712;9.016;2023-01-28T04:14:12;97133.28;;;-1.89;nan
61769;BME280;47669;48.712;9.016;2023-01-28T04:16:37;97131.78;;;-1.71;nan
61769;BME280;47669;48.712;9.016;2023-01-28T04:19:03;97132.00;;;-1.95;nan
61769;BME280;47669;48.712;9.016;2023-01-28T04:21:28;97138.56;;;-1.91;nan
61769;BME280;47669;48.712;9.016;2023-01-28T04:23:53;97135.56;;;-1.96;nan
61769;BME280;47669;48.712;9.016;2023-01-28T04:26:18;97146.38;;;-2.02;nan
61769;BME280;47669;48.712;9.016;2023-01-28T04:28:44;97145.06;;;-1.96;nan
61769;BME280;47669;48.712;9.016;2023-01-28T04:31:09;97147.69;;;-1.66;nan
61769;BME280;47669;48.712;9.016;2023-01-28T04:33:34;97152.88;;;-1.87;nan
61769;BME280;47669;48.712;9.016;2023-01-28T04:36:00;97151.91;;;-1.86;nan
61769;BME280;47669;48.712;9.016;2023-01-28T04:38:25;97149.56;;;-1.89;nan
61769;BME280;47669;48.712;9.016;2023-01-28T04:40:51;97155.50;;;-1.98;nan
61769;BME280;47669;48.712;9.016;2023-01-28T04:43:17;97152.88;;;-1.87;nan
61769;BME280;47669;48.712;9.016;2023-01-28T04:45:44;97157.47;;;-1.90;nan
61769;BME280;47669;48.712;9.016;2023-01-28T04:48:09;97164.19;;;-1.78;nan
61769;BME280;47669;48.712;9.016;2023-01-28T04:50:34;97157.88;;;-1.85;nan
61769;BME280;47669;48.712;9.016;2023-01-28T04:52:59;97158.47;;;-1.82;nan
61769;BME280;47669;48.712;9.016;2023-01-28T04:55:25;97158.28;;;-1.90;nan
61769;BME280;47669;48.712;9.016;2023-01-28T04:57:50;97164.50;;;-1.71;nan
61769;BME280;47669;48.712;9.016;2023-01-28T05:00:16;97163.75;;;-1.83;nan
61769;BME280;47669;48.712;9.016;2023-01-28T05:02:41;97162.06;;;-1.94;nan
61769;BME280;47669;48.712;9.016;2023-01-28T05:05:07;97162.75;;;-1.92;nan
61769;BME280;47669;48.712;9.016;2023-01-28T05:07:34;97166.09;;;-1.80;nan
61769;BME280;47669;48.712;9.016;2023-01-28T05:09:59;97169.91;;;-1.95;nan
61769;BME280;47669;48.712;9.016;2023-01-28T05:12:24;97171.50;;;-1.83;nan
61769;BME280;47669;48.712;9.016;2023-01-28T05:14:50;97170.88;;;-1.96;nan
61769;BME280;47669;48.712;9.016;2023-01-28T05:17:15;97174.69;;;-1.91;nan
61769;BME280;47669;48.712;9.016;2023-01-28T05:19:40;97177.59;;;-1.84;nan
61769;BME280;47669;48.712;9.016;2023-01-28T05:22:05;97173.53;;;-1.87;nan
61769;BME280;47669;48.712;9.016;2023-01-28T05:24:31;97173.06;;;-1.92;nan
61769;BME280;47669;48.712;9.016;2023-01-28T05:26:56;97168.50;;;-1.67;nan
61769;BME280;47669;48.712;9.016;2023-01-28T05:29:21;97181.69;;;-1.82;nan
61769;BME280;47669;48.712;9.016;2023-01-28T05:31:47;97176.41;;;-1.80;nan
61769;BME280;47669;48.712;9.016;2023-01-28T05:34:12;97169.94;;;-1.74;nan
61769;BME280;47669;48.712;9.016;2023-01-28T05:36:38;97177.78;;;-1.76;nan
61769;BME280;47669;48.712;9.016;2023-01-28T05:39:05;97176.41;;;-1.80;nan
61769;BME280;47669;48.712;9.016;2023-01-28T05:41:31;97165.50;;;-1.84;nan
61769;BME280;47669;48.712;9.016;2023-01-28T05:43:57;97179.81;;;-1.80;nan
61769;BME280;47669;48.712;9.016;2023-01-28T05:46:22;97184.09;;;-1.69;nan
61769;BME280;47669;48.712;9.016;2023-01-28T05:48:49;97177.34;;;-1.81;nan
61769;BME280;47669;48.712;9.016;2023-01-28T05:51:15;97168.72;;;-1.91;nan
61769;BME280;47669;48.712;9.016;2023-01-28T05:53:40;97175.97;;;-1.85;nan
61769;BME280;47669;48.712;9.016;2023-01-28T05:56:06;97175.16;;;-1.86;nan
61769;BME280;47669;48.712;9.016;2023-01-28T05:58:31;97169.59;;;-1.81;nan
61769;BME280;47669;48.712;9.016;2023-01-28T06:00:57;97175.44;;;-1.79;nan
61769;BME280;47669;48.712;9.016;2023-01-28T06:03:22;97179.00;;;-1.80;nan
61769;BME280;47669;48.712;9.016;2023-01-28T06:05:48;97184.47;;;-1.94;nan
61769;BME280;47669;48.712;9.016;2023-01-28T06:08:13;97180.88;;;-1.82;nan
61769;BME280;47669;48.712;9.016;2023-01-28T06:10:38;97182.69;;;-1.94;nan
61769;BME280;47669;48.712;9.016;2023-01-28T06:13:03;97187.38;;;-1.88;nan
61769;BME280;47669;48.712;9.016;2023-01-28T06:15:29;97188.06;;;-1.86;nan
61769;BME280;47669;48.712;9.016;2023-01-28T06:17:54;97188.94;;;-1.96;nan
61769;BME280;47669;48.712;9.016;2023-01-28T06:20:19;97193.34;;;-1.87;nan
61769;BME280;47669;48.712;9.016;2023-01-28T06:22:45;97199.69;;;-1.91;nan
61769;BME280;47669;48.712;9.016;2023-01-28T06:25:10;97204.75;;;-1.90;nan
61769;BME280;47669;48.712;9.016;2023-01-28T06:27:35;97212.59;;;-1.91;nan
61769;BME280;47669;48.712;9.016;2023-01-28T06:30:01;97213.75;;;-1.84;nan
61769;BME280;47669;48.712;9.016;2023-01-28T06:32:27;97220.69;;;-1.85;nan
61769;BME280;47669;48.712;9.016;2023-01-28T06:34:52;97227.03;;;-1.68;nan
61769;BME280;47669;48.712;9.016;2023-01-28T06:37:17;97228.00;;;-1.69;nan
61769;BME280;47669;48.712;9.016;2023-01-28T06:39:43;97229.94;;;-1.82;nan
61769;BME280;47669;48.712;9.016;2023-01-28T06:42:08;97236.72;;;-1.81;nan
61769;BME280;47669;48.712;9.016;2023-01-28T06:44:33;97232.25;;;-1.79;nan
61769;BME280;47669;48.712;9.016;2023-01-28T06:46:58;97231.81;;;-1.84;nan
61769;BME280;47669;48.712;9.016;2023-01-28T06:49:24;97232.53;;;-1.82;nan
61769;BME280;47669;48.712;9.016;2023-01-28T06:51:49;97236.72;;;-1.81;nan
61769;BME280;47669;48.712;9.016;2023-01-28T06:54:14;97240.66;;;-1.87;nan
61769;BME280;47669;48.712;9.016;2023-01-28T06:56:40;97242.97;;;-1.84;nan
61769;BME280;47669;48.712;9.016;2023-01-28T06:59:05;97250.09;;;-1.76;nan
61769;BME280;47669;48.712;9.016;2023-01-28T07:01:30;97241.34;;;-1.85;nan
61769;BME280;47669;48.712;9.016;2023-01-28T07:03:56;97245.66;;;-1.85;nan
61769;BME280;47669;48.712;9.016;2023-01-28T07:06:21;97247.53;;;-1.87;nan
61769;BME280;47669;48.712;9.016;2023-01-28T07:08:47;97251.16;;;-1.79;nan
61769;BME280;47669;48.712;9.016;2023-01-28T07:11:12;97249.59;;;-1.70;nan
61769;BME280;47669;48.712;9.016;2023-01-28T07:13:38;97239.75;;;-1.76;nan
61769;BME280;47669;48.712;9.016;2023-01-28T07:16:03;97252.06;;;-1.68;nan
61769;BME280;47669;48.712;9.016;2023-01-28T07:18:29;97250.16;;;-1.66;nan
61769;BME280;47669;48.712;9.016;2023-01-28T07:20:54;97248.91;;;-1.72;nan
61769;BME280;47669;48.712;9.016;2023-01-28T07:23:20;97252.66;;;-1.76;nan
61769;BME280;47669;48.712;9.016;2023-01-28T07:25:46;97263.31;;;-1.69;nan
61769;BME280;47669;48.712;9.016;2023-01-28T07:28:11;97269.19;;;-1.46;nan
61769;BME280;47669;48.712;9.016;2023-01-28T07:30:36;97258.38;;;-1.61;nan
61769;BME280;47669;48.712;9.016;2023-01-28T07:33:02;97256.28;;;-1.67;nan
61769;BME280;47669;48.712;9.016;2023-01-28T07:35:27;97259.69;;;-1.67;nan
61769;BME280;47669;48.712;9.016;2023-01-28T07:37:56;97259.41;;;-1.64;nan
61769;BME280;47669;48.712;9.016;2023-01-28T07:40:22;97263.97;;;-1.35;nan
61769;BME280;47669;48.712;9.016;2023-01-28T07:42:47;97264.72;;;-1.44;nan
61769;BME280;47669;48.712;9.016;2023-01-28T07:45:14;97265.59;;;-1.55;nan
61769;BME280;47669;48.712;9.016;2023-01-28T07:47:39;97260.75;;;-1.48;nan
61769;BME280;47669;48.712;9.016;2023-01-28T07:50:05;97265.50;;;-1.53;nan
61769;BME280;47669;48.712;9.016;2023-01-28T07:52:30;97267.56;;;-1.26;nan
61769;BME280;47669;48.712;9.016;2023-01-28T07:54:55;97271.16;;;-1.39;nan
61769;BME280;47669;48.712;9.016;2023-01-28T07:57:21;97279.34;;;-1.33;nan
61769;BME280;47669;48.712;9.016;2023-01-28T07:59:49;97283.00;;;-1.36;nan
61769;BME280;47669;48.712;9.016;2023-01-28T08:02:17;97280.63;;;-1.28;nan
61769;BME280;47669;48.712;9.016;2023-01-28T08:04:43;97283.38;;;-1.20;nan
61769;BME280;47669;48.712;9.016;2023-01-28T08:07:08;97275.88;;;-1.23;nan
61769;BME280;47669;48.712;9.016;2023-01-28T08:09:34;97286.88;;;-1.30;nan
61769;BME280;47669;48.712;9.016;2023-01-28T08:12:03;97284.88;;;-1.17;nan
61769;BME280;47669;48.712;9.016;2023-01-28T08:14:28;97289.56;;;-1.32;nan
61769;BME280;47669;48.712;9.016;2023-01-28T08:16:53;97293.16;;;-1.23;nan
61769;BME280;47669;48.712;9.016;2023-01-28T08:19:19;97285.66;;;-1.26;nan
61769;BME280;47669;48.712;9.016;2023-01-28T08:21:48;97286.47;;;-1.26;nan
61769;BME280;47669;48.712;9.016;2023-01-28T08:24:14;97293.53;;;-1.07;nan
61769;BME280;47669;48.712;9.016;2023-01-28T08:26:39;97295.91;;;-1.15;nan
61769;BME280;47669;48.712;9.016;2023-01-28T08:29:04;97294.91;;;-1.03;nan
61769;BME280;47669;48.712;9.016;2023-01-28T08:31:30;97292.16;;;-1.11;nan
61769;BME280;47669;48.712;9.016;2023-01-28T08:33:55;97290.75;;;-1.15;nan
61769;BME280;47669;48.712;9.016;2023-01-28T08:36:20;97298.19;;;-1.22;nan
61769;BME280;47669;48.712;9.016;2023-01-28T08:38:46;97299.28;;;-1.03;nan
61769;BME280;47669;48.712;9.016;2023-01-28T08:41:11;97304.56;;;-1.05;nan
61769;BME280;47669;48.712;9.016;2023-01-28T08:43:36;97296.91;;;-0.85;nan
61769;BME280;47669;48.712;9.016;2023-01-28T08:46:04;97298.97;;;-0.79;nan
61769;BME280;47669;48.712;9.016;2023-01-28T08:48:30;97295.22;;;-0.96;nan
61769;BME280;47669;48.712;9.016;2023-01-28T08:50:57;97297.16;;;-0.88;nan
61769;BME280;47669;48.712;9.016;2023-01-28T08:53:23;97291.41;;;-0.92;nan
61769;BME280;47669;48.712;9.016;2023-01-28T08:55:48;97296.81;;;-1.05;nan
61769;BME280;47669;48.712;9.016;2023-01-28T08:58:16;97293.72;;;-0.98;nan
61769;BME280;47669;48.712;9.016;2023-01-28T09:00:43;97297.63;;;-1.04;nan
61769;BME280;47669;48.712;9.016;2023-01-28T09:03:08;97303.66;;;-0.94;nan
61769;BME280;47669;48.712;9.016;2023-01-28T09:05:34;97308.31;;;-0.88;nan
61769;BME280;47669;48.712;9.016;2023-01-28T09:08:01;97312.56;;;-0.87;nan
61769;BME280;47669;48.712;9.016;2023-01-28T09:10:27;97308.56;;;-0.70;nan
61769;BME280;47669;48.712;9.016;2023-01-28T09:12:52;97303.59;;;-0.52;nan
61769;BME280;47669;48.712;9.016;2023-01-28T09:15:18;97298.41;;;-0.83;nan
61769;BME280;47669;48.712;9.016;2023-01-28T09:17:43;97300.91;;;-0.41;nan
61769;BME280;47669;48.712;9.016;2023-01-28T09:20:09;97298.84;;;-0.77;nan
61769;BME280;47669;48.712;9.016;2023-01-28T09:22:35;97302.59;;;-0.61;nan
61769;BME280;47669;48.712;9.016;2023-01-28T09:25:00;97303.88;;;-0.45;nan
61769;BME280;47669;48.712;9.016;2023-01-28T09:27:26;97297.34;;;-0.40;nan
61769;BME280;47669;48.712;9.016;2023-01-28T09:29:51;97303.50;;;-0.41;nan
61769;BME280;47669;48.712;9.016;2023-01-28T09:32:16;97304.81;;;-0.15;nan
61769;BME280;47669;48.712;9.016;2023-01-28T09:34:41;97305.72;;;-0.26;nan
61769;BME280;47669;48.712;9.016;2023-01-28T09:37:10;97308.66;;;0.10;nan
61769;BME280;47669;48.712;9.016;2023-01-28T09:39:36;97317.13;;;0.22;nan
61769;BME280;47669;48.712;9.016;2023-01-28T09:47:24;97320.59;;;-0.09;nan
61769;BME280;47669;48.712;9.016;2023-01-28T09:49:52;97323.66;;;0.06;nan
61769;BME280;47669;48.712;9.016;2023-01-28T09:52:20;97324.59;;;0.15;nan
61769;BME280;47669;48.712;9.016;2023-01-28T09:54:49;97327.03;;;-0.03;nan
61769;BME280;47669;48.712;9.016;2023-01-28T09:57:23;97324.97;;;-0.09;nan
61769;BME280;47669;48.712;9.016;2023-01-28T09:59:49;97326.63;;;0.11;nan
61769;BME280;47669;48.712;9.016;2023-01-28T10:02:36;97324.03;;;0.11;nan
61769;BME280;47669;48.712;9.016;2023-01-28T10:05:21;97327.75;;;0.18;nan
61769;BME280;47669;48.712;9.016;2023-01-28T10:10:54;97323.50;;;0.08;nan
61769;BME280;47669;48.712;9.016;2023-01-28T10:16:36;97322.56;;;0.09;nan
61769;BME280;47669;48.712;9.016;2023-01-28T10:19:06;97325.81;;;0.01;nan
61769;BME280;47669;48.712;9.016;2023-01-28T10:24:17;97308.25;;;0.05;nan
61769;BME280;47669;48.712;9.016;2023-01-28T10:26:48;97316.47;;;-0.31;nan
61769;BME280;47669;48.712;9.016;2023-01-28T10:29:17;97323.72;;;-0.15;nan
61769;BME280;47669;48.712;9.016;2023-01-28T10:32:03;97322.53;;;-0.42;nan
61769;BME280;47669;48.712;9.016;2023-01-28T10:34:30;97313.97;;;-0.42;nan
61769;BME280;47669;48.712;9.016;2023-01-28T10:36:56;97320.78;;;-0.41;nan
61769;BME280;47669;48.712;9.016;2023-01-28T10:39:22;97317.81;;;-0.36;nan
61769;BME280;47669;48.712;9.016;2023-01-28T10:41:49;97314.53;;;-0.38;nan
61769;BME280;47669;48.712;9.016;2023-01-28T10:44:18;97313.53;;;-0.07;nan
61769;BME280;47669;48.712;9.016;2023-01-28T10:46:47;97314.00;;;-0.32;nan
61769;BME280;47669;48.712;9.016;2023-01-28T10:49:17;97313.06;;;-0.22;nan
61769;BME280;47669;48.712;9.016;2023-01-28T10:51:43;97312.47;;;-0.45;nan
61769;BME280;47669;48.712;9.016;2023-01-28T10:54:23;97313.09;;;-0.62;nan
61769;BME280;47669;48.712;9.016;2023-01-28T10:56:52;97308.19;;;-0.55;nan
61769;BME280;47669;48.712;9.016;2023-01-28T10:59:26;97311.31;;;-0.62;nan
61769;BME280;47669;48.712;9.016;2023-01-28T11:01:55;97315.16;;;-0.56;nan
61769;BME280;47669;48.712;9.016;2023-01-28T11:04:27;97315.03;;;-0.54;nan
61769;BME280;47669;48.712;9.016;2023-01-28T11:07:18;97314.84;;;-0.22;nan
61769;BME280;47669;48.712;9.016;2023-01-28T11:09:48;97312.19;;;-0.42;nan
61769;BME280;47669;48.712;9.016;2023-01-28T11:12:26;97311.88;;;-0.17;nan
61769;BME280;47669;48.712;9.016;2023-01-28T11:15:03;97312.25;;;-0.22;nan
61769;BME280;47669;48.712;9.016;2023-01-28T11:17:34;97311.06;;;-0.08;nan
61769;BME280;47669;48.712;9.016;2023-01-28T11:20:12;97309.19;;;0.04;nan
61769;BME280;47669;48.712;9.016;2023-01-28T11:22:44;97308.38;;;0.13;nan
61769;BME280;47669;48.712;9.016;2023-01-28T11:25:18;97306.97;;;-0.11;nan
61769;BME280;47669;48.712;9.016;2023-01-28T11:27:49;97308.25;;;0.05;nan
61769;BME280;47669;48.712;9.016;2023-01-28T11:30:25;97307.31;;;0.35;nan
61769;BME280;47669;48.712;9.016;2023-01-28T11:33:18;97306.16;;;-0.21;nan
61769;BME280;47669;48.712;9.016;2023-01-28T11:36:35;97311.09;;;0.02;nan
61769;BME280;47669;48.712;9.016;2023-01-28T11:38:55;97310.19;;;0.42;nan
61769;BME280;47669;48.712;9.016;2023-01-28T11:41:26;97304.72;;;0.25;nan
61769;BME280;47669;48.712;9.016;2023-01-28T11:43:52;97314.56;;;0.41;nan
61769;BME280;47669;48.712;9.016;2023-01-28T12:05:27;97313.94;;;-0.11;nan
61769;BME280;47669;48.712;9.016;2023-01-28T12:08:33;97304.09;;;-0.27;nan
61769;BME280;47669;48.712;9.016;2023-01-28T12:11:17;97315.44;;;-0.09;nan
61769;BME280;47669;48.712;9.016;2023-01-28T12:13:53;97305.50;;;-0.04;nan
61769;BME280;47669;48.712;9.016;2023-01-28T12:16:33;97313.50;;;-0.16;nan
61769;BME280;47669;48.712;9.016;2023-01-28T12:19:28;97310.84;;;-0.36;nan
61769;BME280;47669;48.712;9.016;2023-01-28T12:22:20;97313.31;;;-0.34;nan
61769;BME280;47669;48.712;9.016;2023-01-28T12:27:46;97318.00;;;-0.18;nan
61769;BME280;47669;48.712;9.016;2023-01-28T12:30:24;97308.19;;;-0.15;nan
61769;BME280;47669;48.712;9.016;2023-01-28T12:33:07;97307.38;;;-0.15;nan
61769;BME280;47669;48.712;9.016;2023-01-28T12:35:59;97318.91;;;-0.29;nan
61769;BME280;47669;48.712;9.016;2023-01-28T12:41:00;97313.41;;;-0.46;nan
61769;BME280;47669;48.712;9.016;2023-01-28T12:44:07;97317.03;;;-0.27;nan
61769;BME280;47669;48.712;9.016;2023-01-28T12:46:47;97319.28;;;-0.44;nan
61769;BME280;47669;48.712;9.016;2023-01-28T12:49:23;97322.22;;;-0.27;nan
61769;BME280;47669;48.712;9.016;2023-01-28T12:54:52;97310.84;;;-0.36;nan
61769;BME280;47669;48.712;9.016;2023-01-28T12:57:26;97312.66;;;-0.27;nan
61769;BME280;47669;48.712;9.016;2023-01-28T13:00:18;97311.69;;;-0.26;nan
61769;BME280;47669;48.712;9.016;2023-01-28T13:02:51;97308.72;;;-0.31;nan
61769;BME280;47669;48.712;9.016;2023-01-28T13:05:26;97311.69;;;-0.26;nan
61769;BME280;47669;48.712;9.016;2023-01-28T13:08:14;97302.88;;;-0.23;nan
61769;BME280;47669;48.712;9.016;2023-01-28T13:10:43;97309.66;;;-0.22;nan
61769;BME280;47669;48.712;9.016;2023-01-28T13:13:16;97309.28;;;-0.27;nan
61769;BME280;47669;48.712;9.016;2023-01-28T13:15:43;97304.84;;;0.04;nan
61769;BME280;47669;48.712;9.016;2023-01-28T13:18:33;97306.63;;;0.33;nan
61769;BME280;47669;48.712;9.016;2023-01-28T13:21:01;97301.59;;;0.51;nan
61769;BME280;47669;48.712;9.016;2023-01-28T13:25:55;97305.66;;;0.14;nan
61769;BME280;47669;48.712;9.016;2023-01-28T13:28:31;97298.47;;;0.37;nan
61769;BME280;47669;48.712;9.016;2023-01-28T13:33:35;97312.47;;;0.15;nan
61769;BME280;47669;48.712;9.016;2023-01-28T13:41:48;97315.06;;;0.15;nan
61769;BME280;47669;48.712;9.016;2023-01-28T13:46:43;97317.72;;;-0.25;nan
61769;BME280;47669;48.712;9.016;2023-01-28T13:49:14;97318.69;;;-0.16;nan
61769;BME280;47669;48.712;9.016;2023-01-28T13:51:51;97320.72;;;-0.51;nan
61769;BME280;47669;48.712;9.016;2023-01-28T13:54:20;97328.66;;;-0.02;nan
61769;BME280;47669;48.712;9.016;2023-01-28T13:57:15;97319.84;;;0.10;nan
61769;BME280;47669;48.712;9.016;2023-01-28T14:11:14;97330.44;;;-0.03;nan
61769;BME280;47669;48.712;9.016;2023-01-28T14:13:59;97346.34;;;-0.17;nan
61769;BME280;47669;48.712;9.016;2023-01-28T14:16:43;97353.06;;;-0.35;nan
61769;BME280;47669;48.712;9.016;2023-01-28T14:19:18;97353.03;;;-0.45;nan
61769;BME280;47669;48.712;9.016;2023-01-28T14:21:45;97350.88;;;-0.71;nan
61769;BME280;47669;48.712;9.016;2023-01-28T14:24:15;97359.38;;;-0.59;nan
61769;BME280;47669;48.712;9.016;2023-01-28T14:26:56;97367.81;;;-0.57;nan
61769;BME280;47669;48.712;9.016;2023-01-28T14:31:52;97381.25;;;-0.42;nan
61769;BME280;47669;48.712;9.016;2023-01-28T14:34:24;97388.91;;;-0.62;nan
61769;BME280;47669;48.712;9.016;2023-01-28T14:36:54;97380.78;;;-0.78;nan
61769;BME280;47669;48.712;9.016;2023-01-28T14:39:24;97387.31;;;-0.53;nan
61769;BME280;47669;48.712;9.016;2023-01-28T14:41:52;97384.59;;;-0.51;nan
61769;BME280;47669;48.712;9.016;2023-01-28T14:44:35;97382.50;;;-0.36;nan
61769;BME280;47669;48.712;9.016;2023-01-28T14:47:22;97382.25;;;-0.64;nan
61769;BME280;47669;48.712;9.016;2023-01-28T14:50:43;97385.09;;;-0.36;nan
61769;BME280;47669;48.712;9.016;2023-01-28T14:56:07;97382.00;;;-0.51;nan
61769;BME280;47669;48.712;9.016;2023-01-28T14:59:06;97392.06;;;-0.58;nan
61769;BME280;47669;48.712;9.016;2023-01-28T15:01:43;97390.53;;;-0.61;nan
61769;BME280;47669;48.712;9.016;2023-01-28T15:04:29;97395.97;;;-0.85;nan